Time;durP1;ratioP1;P1;durP2;ratioP2;P2;SDS_P1;SDS_P2;PMS_P1;PMS_P2;Temp;Humidity;BMP_temperature;BMP_pressure;BME280_temperature;BME280_humidity;BME280_pressure;Samples;Min_cycle;Max_cycle;Signal;HPM_P1;HPM_P2
2023/10/28 00:00:42;;;;;;;4.27;3.30;;;8.50;99.90;;;;;;5097599;28;20205;-46
2023/10/28 00:03:09;;;;;;;4.53;3.60;;;8.50;99.90;;;;;;5099738;28;20292;-50
2023/10/28 00:05:36;;;;;;;3.63;3.33;;;8.50;99.90;;;;;;5104317;27;20189;-46
2023/10/28 00:08:05;;;;;;;4.57;3.63;;;8.50;99.90;;;;;;5084600;27;20667;-45
2023/10/28 00:10:33;;;;;;;3.37;3.07;;;8.50;99.90;;;;;;5101451;28;20192;-46
2023/10/28 00:13:00;;;;;;;3.57;3.27;;;8.50;99.90;;;;;;5103708;27;20213;-45
2023/10/28 00:15:27;;;;;;;6.27;3.70;;;8.40;99.90;;;;;;5094505;28;20793;-50
2023/10/28 00:17:54;;;;;;;3.40;3.10;;;8.50;99.90;;;;;;5102640;28;20524;-46
2023/10/28 00:20:21;;;;;;;3.13;2.83;;;8.50;99.90;;;;;;5107900;27;20218;-51
2023/10/28 00:22:49;;;;;;;3.90;3.47;;;8.50;99.90;;;;;;5108152;27;20296;-46
2023/10/28 00:25:17;;;;;;;3.47;3.10;;;8.40;99.90;;;;;;5081341;28;20213;-51
2023/10/28 00:27:45;;;;;;;4.07;3.60;;;8.40;99.90;;;;;;5102338;28;20201;-45
2023/10/28 00:30:12;;;;;;;3.43;3.13;;;8.40;99.90;;;;;;5098534;28;20764;-49
2023/10/28 00:32:39;;;;;;;3.33;2.97;;;8.40;99.90;;;;;;5109878;27;20221;-49
2023/10/28 00:35:08;;;;;;;4.73;3.70;;;8.40;99.90;;;;;;5108006;27;20567;-46
2023/10/28 00:37:34;;;;;;;4.17;3.30;;;8.40;99.90;;;;;;5101736;27;20296;-44
2023/10/28 00:40:05;;;;;;;3.73;3.43;;;8.40;99.90;;;;;;5092712;27;20196;-47
2023/10/28 00:42:35;;;;;;;4.60;3.43;;;8.40;99.90;;;;;;5100857;28;20262;-46
2023/10/28 00:45:02;;;;;;;5.00;3.33;;;8.40;99.90;;;;;;5101709;28;20665;-46
2023/10/28 00:47:30;;;;;;;3.23;3.00;;;8.40;99.90;;;;;;5095600;27;20193;-45
2023/10/28 00:49:58;;;;;;;5.10;3.27;;;8.40;99.90;;;;;;5111065;27;20209;-46
2023/10/28 00:52:27;;;;;;;3.40;3.10;;;8.40;99.90;;;;;;5103869;27;20232;-47
2023/10/28 00:54:56;;;;;;;3.33;3.03;;;8.40;99.90;;;;;;5086972;28;20281;-44
2023/10/28 00:57:26;;;;;;;3.57;3.27;;;8.40;99.90;;;;;;5098310;28;20953;-45
2023/10/28 00:59:56;;;;;;;3.63;3.33;;;8.40;99.90;;;;;;5105405;27;20201;-45
2023/10/28 01:02:24;;;;;;;3.23;2.93;;;8.30;99.90;;;;;;5093586;28;20244;-50
2023/10/28 01:04:52;;;;;;;4.03;3.27;;;8.40;99.90;;;;;;5103607;27;20193;-45
2023/10/28 01:07:19;;;;;;;3.03;2.80;;;8.30;99.90;;;;;;5095654;28;20206;-49
2023/10/28 01:09:47;;;;;;;3.43;3.13;;;8.40;99.90;;;;;;5101115;28;20213;-49
2023/10/28 01:12:14;;;;;;;3.83;3.10;;;8.40;99.90;;;;;;5082632;28;20304;-46
2023/10/28 01:14:41;;;;;;;2.87;2.67;;;8.40;99.90;;;;;;5104609;28;20312;-50
2023/10/28 01:17:13;;;;;;;5.70;3.30;;;8.30;99.90;;;;;;5097733;28;20671;-47
2023/10/28 01:19:40;;;;;;;3.50;3.20;;;8.30;99.90;;;;;;5094940;28;20664;-47
2023/10/28 01:22:09;;;;;;;4.33;3.27;;;8.40;99.90;;;;;;5101367;28;20693;-47
2023/10/28 01:24:36;;;;;;;4.17;2.73;;;8.30;99.90;;;;;;5098600;28;20966;-48
2023/10/28 01:27:03;;;;;;;3.37;2.93;;;8.40;99.90;;;;;;5090820;28;20206;-51
2023/10/28 01:29:32;;;;;;;3.70;2.77;;;8.40;99.90;;;;;;5102123;28;20209;-48
2023/10/28 01:31:59;;;;;;;4.00;3.03;;;8.30;99.90;;;;;;5102899;28;20186;-44
2023/10/28 01:34:27;;;;;;;3.30;3.10;;;8.30;99.90;;;;;;5096137;28;20200;-47
2023/10/28 01:36:56;;;;;;;3.63;3.33;;;8.30;99.90;;;;;;5104129;28;20197;-48
2023/10/28 01:39:24;;;;;;;3.60;3.20;;;8.40;99.90;;;;;;5097500;28;20930;-47
2023/10/28 01:41:51;;;;;;;3.47;3.10;;;8.30;99.90;;;;;;5084937;28;20270;-46
2023/10/28 01:44:18;;;;;;;3.63;2.97;;;8.30;99.90;;;;;;5099130;28;20201;-46
2023/10/28 01:46:46;;;;;;;3.33;3.07;;;8.30;99.90;;;;;;5102762;28;20671;-46
2023/10/28 01:49:13;;;;;;;3.50;3.03;;;8.30;99.90;;;;;;5096689;28;20548;-48
2023/10/28 01:51:40;;;;;;;4.80;3.17;;;8.20;99.90;;;;;;5106655;28;20197;-44
2023/10/28 01:54:07;;;;;;;3.07;2.87;;;8.20;99.90;;;;;;5094384;28;20212;-47
2023/10/28 01:56:35;;;;;;;3.07;2.53;;;8.30;99.90;;;;;;5080937;28;20205;-44
2023/10/28 01:59:02;;;;;;;4.20;2.80;;;8.30;99.90;;;;;;5110677;28;20209;-45
2023/10/28 02:01:29;;;;;;;3.27;2.97;;;8.30;99.90;;;;;;5094682;28;20190;-47
2023/10/28 02:03:56;;;;;;;5.93;3.23;;;8.40;99.90;;;;;;5101916;28;20213;-46
2023/10/28 02:06:23;;;;;;;4.80;3.90;;;8.30;99.90;;;;;;5102225;28;20258;-44
2023/10/28 02:08:50;;;;;;;5.03;3.60;;;8.30;99.90;;;;;;5098646;28;20223;-45
2023/10/28 02:11:17;;;;;;;3.80;3.50;;;8.30;99.90;;;;;;5091455;28;20209;-47
2023/10/28 02:13:45;;;;;;;3.43;3.13;;;8.30;99.90;;;;;;5079938;28;20232;-44
2023/10/28 02:16:12;;;;;;;3.70;3.40;;;8.30;99.90;;;;;;5100120;28;20276;-48
2023/10/28 02:18:39;;;;;;;3.73;3.43;;;8.30;99.90;;;;;;5106523;28;21012;-48
2023/10/28 02:21:06;;;;;;;3.80;3.40;;;8.30;99.90;;;;;;5091091;28;20232;-45
2023/10/28 02:23:33;;;;;;;5.37;3.43;;;8.30;99.90;;;;;;5101179;27;20228;-45
2023/10/28 02:26:00;;;;;;;6.00;3.43;;;8.30;99.90;;;;;;5100684;28;20213;-47
2023/10/28 02:28:28;;;;;;;4.40;3.90;;;8.30;99.90;;;;;;5086363;27;20205;-46
2023/10/28 02:30:56;;;;;;;5.23;3.60;;;8.30;99.90;;;;;;5100119;28;20213;-44
2023/10/28 02:33:23;;;;;;;3.33;3.00;;;8.30;99.90;;;;;;5102167;27;20209;-49
2023/10/28 02:35:50;;;;;;;4.50;3.10;;;8.30;99.90;;;;;;5108268;27;20262;-45
2023/10/28 02:38:16;;;;;;;3.67;3.37;;;8.30;99.90;;;;;;5097176;27;20667;-48
2023/10/28 02:40:46;;;;;;;3.47;3.17;;;8.30;99.90;;;;;;5103121;28;20200;-45
2023/10/28 02:43:14;;;;;;;4.27;3.73;;;8.30;99.90;;;;;;5089531;27;20273;-45
2023/10/28 02:45:41;;;;;;;4.70;3.43;;;8.30;99.90;;;;;;5100430;27;20193;-44
2023/10/28 02:48:09;;;;;;;3.23;2.70;;;8.30;99.90;;;;;;5103640;28;20193;-47
2023/10/28 02:50:37;;;;;;;4.43;4.03;;;8.30;99.90;;;;;;5100517;28;20446;-46
2023/10/28 02:53:04;;;;;;;3.97;3.63;;;8.20;99.90;;;;;;5099017;28;20674;-48
2023/10/28 02:55:30;;;;;;;3.70;3.20;;;8.20;99.90;;;;;;5104968;27;20202;-48
2023/10/28 02:57:57;;;;;;;3.67;3.20;;;8.30;99.90;;;;;;5116163;27;20254;-48
2023/10/28 03:00:24;;;;;;;3.93;3.47;;;8.20;99.90;;;;;;5089187;27;20189;-46
2023/10/28 03:02:52;;;;;;;5.67;3.80;;;8.30;99.90;;;;;;5102234;27;20217;-44
2023/10/28 03:05:22;;;;;;;3.93;3.63;;;8.30;99.90;;;;;;5105426;27;20200;-46
2023/10/28 03:07:50;;;;;;;4.30;3.50;;;8.30;99.90;;;;;;5101795;27;20197;-45
2023/10/28 03:10:16;;;;;;;5.77;3.90;;;8.30;99.90;;;;;;5100211;27;20217;-46
2023/10/28 03:12:44;;;;;;;4.37;3.97;;;8.30;99.90;;;;;;5106804;27;20217;-45
2023/10/28 03:15:12;;;;;;;3.60;3.30;;;8.30;99.90;;;;;;5091709;27;20205;-49
2023/10/28 03:17:39;;;;;;;4.20;3.60;;;8.30;99.90;;;;;;5098221;28;20194;-45
2023/10/28 03:20:10;;;;;;;4.70;4.30;;;8.30;99.90;;;;;;5102741;28;20186;-46
2023/10/28 03:22:39;;;;;;;6.90;3.93;;;8.20;99.90;;;;;;5099850;27;20217;-46
2023/10/28 03:25:06;;;;;;;4.20;3.47;;;8.30;99.90;;;;;;5098027;27;20217;-47
2023/10/28 03:27:33;;;;;;;4.03;3.70;;;8.30;99.90;;;;;;5100405;27;20284;-44
2023/10/28 03:30:00;;;;;;;4.83;3.83;;;8.30;99.90;;;;;;5098540;27;20224;-45
2023/10/28 03:32:26;;;;;;;4.33;3.93;;;8.30;99.90;;;;;;5081327;28;20214;-46
2023/10/28 03:34:53;;;;;;;4.33;3.90;;;8.30;99.90;;;;;;5102565;27;20543;-49
2023/10/28 03:37:20;;;;;;;4.67;3.33;;;8.30;99.90;;;;;;5096707;28;20272;-47
2023/10/28 03:39:48;;;;;;;7.07;3.83;;;8.30;99.90;;;;;;5089755;28;20223;-46
2023/10/28 03:42:15;;;;;;;6.53;3.73;;;8.30;99.90;;;;;;5103303;28;20631;-44
2023/10/28 03:44:42;;;;;;;4.23;3.67;;;8.30;99.90;;;;;;5101058;27;20562;-45
2023/10/28 03:47:09;;;;;;;4.67;3.43;;;8.30;99.90;;;;;;5081072;27;20251;-44
2023/10/28 03:49:36;;;;;;;7.50;4.03;;;8.30;99.90;;;;;;5098931;28;20702;-49
2023/10/28 03:52:03;;;;;;;4.50;3.97;;;8.30;99.90;;;;;;5103412;28;20189;-44
2023/10/28 03:54:30;;;;;;;5.53;4.27;;;8.30;99.90;;;;;;5099670;28;20201;-45
2023/10/28 03:56:59;;;;;;;4.63;4.23;;;8.30;99.90;;;;;;5106823;27;20286;-44
2023/10/28 03:59:25;;;;;;;5.80;3.83;;;8.30;99.90;;;;;;5112202;27;20610;-46
2023/10/28 04:01:52;;;;;;;5.50;4.50;;;8.30;99.90;;;;;;5071112;27;20205;-45
2023/10/28 04:04:19;;;;;;;6.63;4.13;;;8.30;99.90;;;;;;5104361;27;20197;-45
2023/10/28 04:06:46;;;;;;;4.50;4.03;;;8.30;99.90;;;;;;5095627;27;20197;-46
2023/10/28 04:09:14;;;;;;;3.83;3.50;;;8.30;99.90;;;;;;5097856;27;20196;-46
2023/10/28 04:11:41;;;;;;;5.27;4.40;;;8.30;99.90;;;;;;5099603;27;20298;-46
2023/10/28 04:14:09;;;;;;;4.67;4.13;;;8.30;99.90;;;;;;5108280;27;20216;-45
2023/10/28 04:16:36;;;;;;;5.87;3.90;;;8.30;99.90;;;;;;5087410;27;20660;-46
2023/10/28 04:19:03;;;;;;;4.43;4.00;;;8.30;99.90;;;;;;5096499;28;20205;-45
2023/10/28 04:21:30;;;;;;;6.13;4.57;;;8.30;99.90;;;;;;5101028;28;20189;-47
2023/10/28 04:23:56;;;;;;;10.93;4.47;;;8.30;99.90;;;;;;5090085;27;20209;-45
2023/10/28 04:26:23;;;;;;;4.93;4.07;;;8.20;99.90;;;;;;5098071;28;20208;-46
2023/10/28 04:28:50;;;;;;;5.03;4.47;;;8.20;99.90;;;;;;5098262;28;20308;-47
2023/10/28 04:31:18;;;;;;;4.80;4.33;;;8.20;99.90;;;;;;5102514;28;20263;-45
2023/10/28 04:33:45;;;;;;;6.00;4.57;;;8.20;99.90;;;;;;5081005;27;20275;-45
2023/10/28 04:36:12;;;;;;;5.97;4.57;;;8.20;99.90;;;;;;5105718;27;20276;-44
2023/10/28 04:38:40;;;;;;;9.40;5.00;;;8.20;99.90;;;;;;5093113;27;20220;-44
2023/10/28 04:41:08;;;;;;;5.63;5.07;;;8.20;99.90;;;;;;5100902;27;20209;-44
2023/10/28 04:43:35;;;;;;;5.37;4.87;;;8.20;99.90;;;;;;5101496;28;20213;-45
2023/10/28 04:46:02;;;;;;;5.17;4.37;;;8.20;99.90;;;;;;5093951;28;20200;-45
2023/10/28 04:48:30;;;;;;;7.57;5.00;;;8.20;99.90;;;;;;5078064;28;20384;-46
2023/10/28 04:50:56;;;;;;;5.20;4.50;;;8.20;99.90;;;;;;5097734;27;20225;-44
2023/10/28 04:53:23;;;;;;;5.17;4.70;;;8.20;99.90;;;;;;5094911;28;20217;-46
2023/10/28 04:55:50;;;;;;;7.80;4.53;;;8.20;99.90;;;;;;5095932;28;20679;-45
2023/10/28 04:58:17;;;;;;;4.73;4.33;;;8.20;99.90;;;;;;5101801;27;20197;-47
2023/10/28 05:00:45;;;;;;;5.47;4.97;;;8.20;99.90;;;;;;5102381;28;20205;-45
2023/10/28 05:03:12;;;;;;;8.13;4.67;;;8.20;99.90;;;;;;5104696;27;20228;-47
2023/10/28 05:05:40;;;;;;;6.97;5.33;;;8.20;99.90;;;;;;5080173;27;20229;-45
2023/10/28 05:08:08;;;;;;;5.93;4.73;;;8.20;99.90;;;;;;5099389;27;20219;-44
2023/10/28 05:10:35;;;;;;;5.77;4.87;;;8.20;99.90;;;;;;5093188;28;20575;-48
2023/10/28 05:13:03;;;;;;;6.80;5.03;;;8.20;99.90;;;;;;5102488;28;20269;-48
2023/10/28 05:15:30;;;;;;;5.13;4.53;;;8.20;99.90;;;;;;5103587;28;20523;-47
2023/10/28 05:17:56;;;;;;;5.63;5.10;;;8.20;99.90;;;;;;5103207;27;20254;-46
2023/10/28 05:20:24;;;;;;;8.70;4.97;;;8.20;99.90;;;;;;5082973;28;20573;-44
2023/10/28 05:22:52;;;;;;;6.80;4.80;;;8.20;99.90;;;;;;5087850;28;20312;-45
2023/10/28 05:25:19;;;;;;;7.10;5.00;;;8.20;99.90;;;;;;5095048;28;20197;-48
2023/10/28 05:27:46;;;;;;;5.73;5.10;;;8.10;99.90;;;;;;5094851;28;20227;-45
2023/10/28 05:30:13;;;;;;;5.63;5.07;;;8.10;99.90;;;;;;5098773;28;20266;-44
2023/10/28 05:32:41;;;;;;;6.53;5.20;;;8.20;99.90;;;;;;5099856;28;20232;-45
2023/10/28 05:35:10;;;;;;;7.00;5.07;;;8.20;99.90;;;;;;5066517;28;20221;-45
2023/10/28 05:37:37;;;;;;;7.07;5.47;;;8.20;99.90;;;;;;5095915;28;20250;-47
2023/10/28 05:40:10;;;;;;;7.73;5.10;;;8.10;99.90;;;;;;5087429;28;20221;-45
2023/10/28 05:42:36;;;;;;;7.23;5.77;;;8.20;99.90;;;;;;5094541;28;20695;-48
2023/10/28 05:45:07;;;;;;;7.77;5.53;;;8.10;99.90;;;;;;5099673;28;20216;-45
2023/10/28 05:47:34;;;;;;;5.93;5.33;;;8.10;99.90;;;;;;5102127;28;20675;-53
2023/10/28 05:50:05;;;;;;;7.03;5.57;;;8.20;99.90;;;;;;5067992;28;20219;-48
2023/10/28 05:52:32;;;;;;;7.00;5.63;;;8.10;99.90;;;;;;5101988;28;20300;-48
2023/10/28 05:54:59;;;;;;;7.77;5.60;;;8.20;99.90;;;;;;5083084;28;20201;-44
2023/10/28 05:57:27;;;;;;;10.90;5.90;;;8.10;99.90;;;;;;5096705;28;20208;-43
2023/10/28 05:59:54;;;;;;;17.63;5.97;;;8.20;99.90;;;;;;5100030;27;20914;-45
2023/10/28 06:02:21;;;;;;;7.17;5.20;;;8.20;99.90;;;;;;5104209;28;20270;-47
2023/10/28 06:04:48;;;;;;;6.87;5.07;;;8.10;99.90;;;;;;5102138;28;20250;-51
2023/10/28 06:07:16;;;;;;;8.40;5.13;;;8.20;99.90;;;;;;5075831;28;20205;-43
2023/10/28 06:09:43;;;;;;;6.27;5.17;;;8.10;99.90;;;;;;5083669;28;20202;-51
2023/10/28 06:12:13;;;;;;;8.27;5.40;;;8.10;99.90;;;;;;5093258;28;20228;-46
2023/10/28 06:14:42;;;;;;;7.03;5.70;;;8.20;99.90;;;;;;5099709;28;20301;-51
2023/10/28 06:17:10;;;;;;;6.03;4.83;;;8.20;99.90;;;;;;5101781;28;20205;-46
2023/10/28 06:19:37;;;;;;;5.80;4.90;;;8.10;99.90;;;;;;5103434;28;20276;-50
2023/10/28 06:22:04;;;;;;;7.87;5.30;;;8.20;99.90;;;;;;5073209;28;20352;-47
2023/10/28 06:24:31;;;;;;;6.57;4.93;;;8.10;99.90;;;;;;5093716;28;20212;-50
2023/10/28 06:26:59;;;;;;;7.30;5.07;;;8.10;99.90;;;;;;5087939;28;20201;-48
2023/10/28 06:29:26;;;;;;;7.70;5.37;;;8.20;99.90;;;;;;5098166;28;20197;-44
2023/10/28 06:31:57;;;;;;;8.13;5.00;;;8.10;99.90;;;;;;5099252;28;20206;-43
2023/10/28 06:34:25;;;;;;;6.23;5.30;;;8.20;99.90;;;;;;5105569;28;20542;-45
2023/10/28 06:36:51;;;;;;;8.90;5.27;;;8.10;99.90;;;;;;5068366;28;20205;-45
2023/10/28 06:39:18;;;;;;;8.23;4.80;;;8.20;99.90;;;;;;5103865;28;20242;-44
2023/10/28 06:41:45;;;;;;;7.97;5.27;;;8.20;99.90;;;;;;5081467;28;20204;-45
2023/10/28 06:44:12;;;;;;;7.30;4.67;;;8.20;99.90;;;;;;5087777;28;20213;-48
2023/10/28 06:46:39;;;;;;;11.40;4.83;;;8.20;99.90;;;;;;5092113;27;20262;-48
2023/10/28 06:49:08;;;;;;;6.17;4.80;;;8.20;99.90;;;;;;5108164;27;20200;-47
2023/10/28 06:51:35;;;;;;;5.27;4.73;;;8.20;99.90;;;;;;5099861;28;20274;-43
2023/10/28 06:54:03;;;;;;;7.87;4.80;;;8.20;99.90;;;;;;5069905;27;20233;-46
2023/10/28 06:56:30;;;;;;;9.47;4.87;;;8.20;99.90;;;;;;5093058;28;20205;-49
2023/10/28 06:58:57;;;;;;;7.33;5.07;;;8.20;99.90;;;;;;5094945;28;20190;-44
2023/10/28 07:01:24;;;;;;;5.60;4.27;;;8.20;99.90;;;;;;5085103;28;20217;-45
2023/10/28 07:03:51;;;;;;;6.07;4.80;;;8.20;99.90;;;;;;5101331;28;20224;-50
2023/10/28 07:06:19;;;;;;;7.47;4.90;;;8.30;99.90;;;;;;5098750;28;20201;-50
2023/10/28 07:08:48;;;;;;;5.87;4.20;;;8.30;99.90;;;;;;5070509;28;20229;-45
2023/10/28 07:11:15;;;;;;;4.97;4.47;;;8.20;99.90;;;;;;5091527;28;20582;-47
2023/10/28 07:13:42;;;;;;;5.93;4.13;;;8.30;99.90;;;;;;5091734;28;20554;-46
2023/10/28 07:16:08;;;;;;;6.87;4.83;;;8.30;99.90;;;;;;5092957;28;20208;-46
2023/10/28 07:18:35;;;;;;;6.37;4.67;;;8.30;99.90;;;;;;5098988;28;20254;-47
2023/10/28 07:21:04;;;;;;;7.67;5.07;;;8.30;99.90;;;;;;5097019;28;20186;-45
2023/10/28 07:23:32;;;;;;;8.60;4.83;;;8.30;99.90;;;;;;5103452;27;20859;-47
2023/10/28 07:26:01;;;;;;;5.57;4.10;;;8.30;99.90;;;;;;5068303;28;20209;-44
2023/10/28 07:28:33;;;;;;;7.87;4.67;;;8.30;99.90;;;;;;5094096;28;20197;-47
2023/10/28 07:31:01;;;;;;;6.53;4.60;;;8.30;99.90;;;;;;5103568;27;20223;-48
2023/10/28 07:33:28;;;;;;;7.63;5.17;;;8.30;99.90;;;;;;5097343;28;20941;-45
2023/10/28 07:35:55;;;;;;;6.20;4.83;;;8.30;99.90;;;;;;5107054;27;20242;-45
2023/10/28 07:38:23;;;;;;;8.37;5.30;;;8.30;99.90;;;;;;5097742;28;20181;-48
2023/10/28 07:40:52;;;;;;;8.80;5.83;;;8.30;99.90;;;;;;5070457;28;20247;-47
2023/10/28 07:43:19;;;;;;;8.37;5.70;;;8.30;99.90;;;;;;5089826;28;20935;-47
2023/10/28 07:45:46;;;;;;;6.93;5.00;;;8.40;99.90;;;;;;5095109;28;20212;-45
2023/10/28 07:48:13;;;;;;;7.07;5.47;;;8.40;99.90;;;;;;5094921;28;20201;-48
2023/10/28 07:50:43;;;;;;;5.70;5.03;;;8.40;99.90;;;;;;5100344;28;20845;-46
2023/10/28 07:53:11;;;;;;;8.30;6.10;;;8.40;99.90;;;;;;5097649;28;20294;-49
2023/10/28 07:55:38;;;;;;;8.70;5.93;;;8.40;99.90;;;;;;5072224;28;20209;-46
2023/10/28 07:58:07;;;;;;;8.47;4.90;;;8.50;99.90;;;;;;5088626;28;20575;-45
2023/10/28 08:00:36;;;;;;;8.20;6.07;;;8.40;99.90;;;;;;5100185;28;20200;-45
2023/10/28 08:03:03;;;;;;;9.20;5.70;;;8.40;99.90;;;;;;5094218;28;20236;-51
2023/10/28 08:05:30;;;;;;;9.97;5.67;;;8.40;99.90;;;;;;5097692;28;20177;-46
2023/10/28 08:07:57;;;;;;;9.60;6.33;;;8.40;99.90;;;;;;5099016;28;20796;-45
2023/10/28 08:10:24;;;;;;;9.73;6.23;;;8.40;99.90;;;;;;5099026;27;20281;-47
2023/10/28 08:12:50;;;;;;;9.30;6.83;;;8.50;99.90;;;;;;5058484;28;20254;-46
2023/10/28 08:15:21;;;;;;;9.97;6.13;;;8.50;99.90;;;;;;5090657;28;20703;-46
2023/10/28 08:17:47;;;;;;;7.67;5.30;;;8.50;99.90;;;;;;5093940;28;20269;-49
2023/10/28 08:20:15;;;;;;;8.30;6.00;;;8.50;99.90;;;;;;5096543;27;20278;-47
2023/10/28 08:22:44;;;;;;;8.13;5.90;;;8.50;99.90;;;;;;5097648;28;20213;-46
2023/10/28 08:25:15;;;;;;;8.17;5.63;;;8.50;99.90;;;;;;5099238;28;20189;-48
2023/10/28 08:27:42;;;;;;;7.67;6.13;;;8.50;99.90;;;;;;5068362;27;20220;-45
2023/10/28 08:30:10;;;;;;;9.23;6.57;;;8.50;99.90;;;;;;5091005;27;20205;-47
2023/10/28 08:32:39;;;;;;;9.37;6.60;;;8.50;99.90;;;;;;5082571;28;20218;-47
2023/10/28 08:35:06;;;;;;;8.87;6.13;;;8.60;99.90;;;;;;5106906;27;20297;-46
2023/10/28 08:37:33;;;;;;;8.73;6.00;;;8.60;99.90;;;;;;5091278;28;20201;-49
2023/10/28 08:40:01;;;;;;;11.33;6.20;;;8.60;99.90;;;;;;5099224;28;20193;-44
2023/10/28 08:42:28;;;;;;;11.43;6.77;;;8.50;99.90;;;;;;5061355;27;20882;-46
2023/10/28 08:44:58;;;;;;;10.00;6.90;;;8.50;99.90;;;;;;5090464;27;20205;-46
2023/10/28 08:47:27;;;;;;;8.07;6.50;;;8.60;99.90;;;;;;5101206;28;20277;-47
2023/10/28 08:49:59;;;;;;;11.80;6.73;;;8.60;99.90;;;;;;5093958;27;20284;-48
2023/10/28 08:52:27;;;;;;;11.47;7.17;;;8.60;99.90;;;;;;5105394;27;20218;-47
2023/10/28 08:54:59;;;;;;;11.10;6.43;;;8.70;99.90;;;;;;5099193;28;20670;-50
2023/10/28 08:57:28;;;;;;;9.73;6.53;;;8.70;99.90;;;;;;5066749;27;20417;-49
2023/10/28 08:59:56;;;;;;;12.20;7.20;;;8.70;99.90;;;;;;5105656;27;20201;-52
2023/10/28 09:02:24;;;;;;;12.03;7.70;;;8.80;99.90;;;;;;5084185;28;20217;-49
2023/10/28 09:04:52;;;;;;;12.83;7.10;;;8.90;99.90;;;;;;5087524;28;20193;-49
2023/10/28 09:07:20;;;;;;;11.57;7.37;;;8.90;99.90;;;;;;5095748;28;20193;-45
2023/10/28 09:09:58;;;;;;;10.50;6.63;;;8.90;99.90;;;;;;5102759;28;20292;-48
2023/10/28 09:12:25;;;;;;;13.17;7.93;;;8.80;99.90;;;;;;5093405;28;20784;-46
2023/10/28 09:14:52;;;;;;;17.50;8.53;;;8.80;99.90;;;;;;5073048;28;20206;-49
2023/10/28 09:17:20;;;;;;;10.80;7.73;;;8.80;99.90;;;;;;5081039;27;20257;-48
2023/10/28 09:19:47;;;;;;;9.63;7.07;;;8.90;99.90;;;;;;5099958;27;20826;-46
2023/10/28 09:22:15;;;;;;;13.93;7.93;;;8.80;99.90;;;;;;5102410;28;20205;-47
2023/10/28 09:24:47;;;;;;;11.17;6.90;;;8.90;99.90;;;;;;5102996;28;20604;-45
2023/10/28 09:27:14;;;;;;;10.80;7.63;;;8.90;99.90;;;;;;5092977;28;20204;-46
2023/10/28 09:29:42;;;;;;;12.93;7.57;;;8.90;99.90;;;;;;5065483;28;20201;-46
2023/10/28 09:32:10;;;;;;;10.47;7.40;;;8.90;99.90;;;;;;5096953;28;20225;-47
2023/10/28 09:34:38;;;;;;;11.17;7.77;;;8.90;99.90;;;;;;5089549;28;20683;-46
2023/10/28 09:37:06;;;;;;;11.63;7.50;;;8.90;99.90;;;;;;5088564;27;20660;-48
2023/10/28 09:39:33;;;;;;;12.20;7.47;;;8.90;99.90;;;;;;5095688;27;20251;-45
2023/10/28 09:42:02;;;;;;;11.27;7.57;;;9.00;99.90;;;;;;5090582;28;20292;-48
2023/10/28 09:44:29;;;;;;;13.43;8.37;;;9.00;99.90;;;;;;5067247;27;20221;-48
2023/10/28 09:47:02;;;;;;;15.80;7.57;;;9.00;99.90;;;;;;5085956;28;20210;-45
2023/10/28 09:49:30;;;;;;;10.30;7.70;;;9.00;99.90;;;;;;5089137;28;20254;-46
2023/10/28 09:52:01;;;;;;;9.37;7.57;;;9.00;99.90;;;;;;5093632;28;20259;-46
2023/10/28 09:54:33;;;;;;;14.40;8.47;;;9.00;99.90;;;;;;5102986;28;20193;-48
2023/10/28 09:57:03;;;;;;;11.40;7.27;;;9.00;99.90;;;;;;5095121;27;20228;-47
2023/10/28 09:59:34;;;;;;;13.17;8.13;;;9.00;99.90;;;;;;5087854;27;20537;-47
2023/10/28 10:02:24;;;;;;;13.33;8.20;;;9.00;99.90;;;;;;5063232;27;20237;-47
2023/10/28 10:04:59;;;;;;;15.07;10.50;;;9.00;99.90;;;;;;5082976;28;20526;-51
2023/10/28 10:07:26;;;;;;;11.37;8.53;;;9.30;99.90;;;;;;5101475;28;20275;-50
2023/10/28 10:09:53;;;;;;;10.60;7.83;;;9.20;99.90;;;;;;5098685;28;20280;-47
2023/10/28 10:12:31;;;;;;;11.30;7.07;;;9.10;99.90;;;;;;5102191;27;20296;-49
2023/10/28 10:14:59;;;;;;;11.77;7.47;;;9.10;99.90;;;;;;5086974;28;20233;-48
2023/10/28 10:17:34;;;;;;;10.67;7.47;;;9.10;99.90;;;;;;5059895;28;20205;-48
2023/10/28 10:20:04;;;;;;;14.10;7.93;;;9.10;99.90;;;;;;5080901;28;20210;-48
2023/10/28 10:22:31;;;;;;;10.97;7.23;;;9.20;99.90;;;;;;5098735;27;20297;-48
2023/10/28 10:24:58;;;;;;;12.90;7.40;;;9.20;99.90;;;;;;5103091;27;20318;-44
2023/10/28 10:27:37;;;;;;;9.80;7.73;;;9.20;99.90;;;;;;5101300;27;20205;-49
2023/10/28 10:30:06;;;;;;;10.87;7.57;;;9.20;99.90;;;;;;5106600;27;20220;-45
2023/10/28 10:32:41;;;;;;;9.97;7.30;;;9.20;99.90;;;;;;5062193;27;20226;-45
2023/10/28 10:35:13;;;;;;;13.37;6.90;;;9.20;99.90;;;;;;5097032;28;20209;-47
2023/10/28 10:37:39;;;;;;;13.63;7.33;;;9.20;99.90;;;;;;5080811;28;20270;-45
2023/10/28 10:40:12;;;;;;;12.47;7.83;;;9.20;99.90;;;;;;5106588;27;20201;-44
2023/10/28 10:42:41;;;;;;;10.10;8.47;;;9.20;99.90;;;;;;5087671;28;20198;-44
2023/10/28 10:45:09;;;;;;;9.50;7.13;;;9.20;99.90;;;;;;5104617;27;20192;-48
2023/10/28 10:47:36;;;;;;;13.40;7.50;;;9.20;99.90;;;;;;5047384;28;20410;-46
2023/10/28 10:50:05;;;;;;;11.63;7.53;;;9.20;99.90;;;;;;5094509;28;20689;-48
2023/10/28 10:52:34;;;;;;;8.70;7.43;;;9.20;99.90;;;;;;5086282;28;20218;-53
2023/10/28 10:55:04;;;;;;;11.97;7.07;;;9.30;99.90;;;;;;5098036;27;20209;-50
2023/10/28 10:57:33;;;;;;;10.27;7.37;;;9.20;99.90;;;;;;5100189;28;20764;-53
2023/10/28 11:00:04;;;;;;;10.10;7.77;;;9.30;99.90;;;;;;5097696;27;20208;-52
2023/10/28 11:02:32;;;;;;;11.93;7.70;;;9.30;99.90;;;;;;5060932;27;20220;-52
2023/10/28 11:04:59;;;;;;;9.77;7.93;;;9.30;99.90;;;;;;5097235;28;20209;-52
2023/10/28 11:07:26;;;;;;;11.67;7.77;;;9.30;99.90;;;;;;5094402;28;20547;-45
2023/10/28 11:09:54;;;;;;;10.90;7.60;;;9.30;99.90;;;;;;5102352;28;20659;-50
2023/10/28 11:12:24;;;;;;;10.57;7.83;;;9.30;99.90;;;;;;5090303;28;20547;-47
2023/10/28 11:14:53;;;;;;;10.20;7.60;;;9.40;99.90;;;;;;5099001;28;20201;-47
2023/10/28 11:17:23;;;;;;;11.90;7.77;;;9.40;99.90;;;;;;5073634;28;20212;-46
2023/10/28 11:19:50;;;;;;;11.43;8.13;;;9.40;99.90;;;;;;5090087;28;20280;-51
2023/10/28 11:22:18;;;;;;;11.20;7.43;;;9.40;99.90;;;;;;5094739;28;20274;-48
2023/10/28 11:24:45;;;;;;;13.67;8.17;;;9.40;99.90;;;;;;5099546;27;20201;-45
2023/10/28 11:27:19;;;;;;;12.37;7.80;;;9.40;99.90;;;;;;5102384;28;20728;-49
2023/10/28 11:29:46;;;;;;;13.87;8.30;;;9.50;99.90;;;;;;5104401;27;20288;-47
2023/10/28 11:32:13;;;;;;;11.37;7.47;;;9.50;99.90;;;;;;5090191;27;20225;-44
2023/10/28 11:34:43;;;;;;;11.57;8.20;;;9.50;99.90;;;;;;5074057;28;20194;-50
2023/10/28 11:37:10;;;;;;;13.63;8.80;;;9.50;99.90;;;;;;5080925;27;20197;-46
2023/10/28 11:39:37;;;;;;;10.87;7.17;;;9.60;99.90;;;;;;5090998;28;20262;-49
2023/10/28 11:42:09;;;;;;;12.30;7.50;;;9.60;99.90;;;;;;5100809;27;20254;-45
2023/10/28 11:44:36;;;;;;;12.20;8.50;;;9.60;99.90;;;;;;5102045;27;20270;-48
2023/10/28 11:47:05;;;;;;;10.10;6.53;;;9.60;99.90;;;;;;5105119;28;20674;-47
2023/10/28 11:49:31;;;;;;;11.90;7.27;;;9.60;99.90;;;;;;5082666;28;20220;-46
2023/10/28 11:51:59;;;;;;;11.67;7.30;;;9.60;99.90;;;;;;5099901;27;20269;-46
2023/10/28 11:54:27;;;;;;;11.73;7.10;;;9.60;99.90;;;;;;5092015;28;20189;-47
2023/10/28 11:56:54;;;;;;;9.60;6.53;;;9.70;99.90;;;;;;5104667;28;20631;-48
2023/10/28 11:59:20;;;;;;;8.30;6.47;;;9.70;99.90;;;;;;5101051;28;20668;-49
2023/10/28 12:01:48;;;;;;;10.00;6.83;;;9.70;99.90;;;;;;5103324;27;20193;-44
2023/10/28 12:04:15;;;;;;;11.93;6.63;;;9.70;99.90;;;;;;5072906;28;20262;-52
2023/10/28 12:06:43;;;;;;;9.17;5.77;;;9.80;99.90;;;;;;5105121;27;20358;-48
2023/10/28 12:09:12;;;;;;;10.03;6.60;;;9.80;99.90;;;;;;5097173;28;20197;-49
2023/10/28 12:11:39;;;;;;;12.90;6.77;;;9.80;99.90;;;;;;5096980;28;20898;-44
2023/10/28 12:14:07;;;;;;;9.13;5.83;;;9.80;99.90;;;;;;5099414;28;20611;-49
2023/10/28 12:16:37;;;;;;;13.97;6.80;;;9.80;99.90;;;;;;5100626;28;20182;-46
2023/10/28 12:19:05;;;;;;;14.17;6.93;;;9.80;99.90;;;;;;5078490;27;20237;-47
2023/10/28 12:21:32;;;;;;;9.53;6.37;;;9.80;99.90;;;;;;5101063;27;20185;-49
2023/10/28 12:23:59;;;;;;;11.93;6.73;;;9.90;99.90;;;;;;5096596;28;20270;-48
2023/10/28 12:26:27;;;;;;;8.83;6.27;;;9.90;99.90;;;;;;5096332;28;20258;-49
2023/10/28 12:28:54;;;;;;;13.13;6.97;;;9.90;99.90;;;;;;5100112;28;20292;-47
2023/10/28 12:31:23;;;;;;;14.40;6.70;;;9.90;99.90;;;;;;5099242;28;20197;-55
2023/10/28 12:33:50;;;;;;;12.40;6.93;;;9.80;99.90;;;;;;5101994;28;20301;-46
2023/10/28 12:36:18;;;;;;;16.90;7.37;;;9.90;99.90;;;;;;5068455;28;20236;-53
2023/10/28 12:38:45;;;;;;;13.10;6.87;;;9.90;99.90;;;;;;5098359;28;20185;-46
2023/10/28 12:41:13;;;;;;;15.17;7.07;;;9.90;99.90;;;;;;5091421;28;20209;-57
2023/10/28 12:43:41;;;;;;;18.33;8.20;;;9.90;99.90;;;;;;5091303;28;20278;-45
2023/10/28 12:46:08;;;;;;;14.03;7.13;;;9.90;99.90;;;;;;5097438;28;20190;-55
2023/10/28 12:48:35;;;;;;;11.90;7.73;;;9.80;99.90;;;;;;5099554;28;20188;-46
2023/10/28 12:51:02;;;;;;;13.53;7.13;;;9.90;99.90;;;;;;5067710;28;20205;-45
2023/10/28 12:53:30;;;;;;;14.53;8.10;;;9.90;99.90;;;;;;5098435;28;20938;-48
2023/10/28 12:55:57;;;;;;;13.50;8.23;;;9.90;99.90;;;;;;5094187;28;20562;-50